createdAt,value
2023-01-25T00:01:41.242Z,12.52
2023-01-25T00:04:07.643Z,14.10
2023-01-25T00:06:34.037Z,17.08
2023-01-25T00:09:00.473Z,15.27
2023-01-25T00:11:26.882Z,15.30
2023-01-25T00:13:54.100Z,14.13
2023-01-25T00:16:20.743Z,16.45
2023-01-25T00:18:48.164Z,15.05
2023-01-25T00:21:18.724Z,17.30
2023-01-25T00:23:45.266Z,16.45
2023-01-25T00:26:11.699Z,11.85
2023-01-25T00:28:38.217Z,16.95
2023-01-25T00:31:05.506Z,14.63
2023-01-25T00:33:40.605Z,13.50
2023-01-25T00:36:27.470Z,13.60
2023-01-25T00:38:54.389Z,13.13
2023-01-25T00:41:20.832Z,14.70
2023-01-25T00:43:47.256Z,13.85
2023-01-25T00:46:17.060Z,14.93
2023-01-25T00:48:43.649Z,15.27
2023-01-25T00:51:10.205Z,13.80
2023-01-25T00:53:36.661Z,13.27
2023-01-25T00:56:03.318Z,14.48
2023-01-25T00:58:29.870Z,12.48
2023-01-25T01:00:57.015Z,15.43
2023-01-25T01:03:23.585Z,15.10
2023-01-25T01:06:02.634Z,13.98
2023-01-25T01:08:29.201Z,14.45
2023-01-25T01:11:00.220Z,13.73
2023-01-25T01:13:27.303Z,15.65
2023-01-25T01:15:53.700Z,13.88
2023-01-25T01:18:20.250Z,12.85
2023-01-25T01:20:52.955Z,16.85
2023-01-25T01:23:19.670Z,15.52
2023-01-25T01:25:46.206Z,12.68
2023-01-25T01:28:12.809Z,11.43
2023-01-25T01:30:39.320Z,10.82
2023-01-25T01:33:06.097Z,13.40
2023-01-25T01:35:32.678Z,11.13
2023-01-25T01:37:59.360Z,12.10
2023-01-25T01:40:25.769Z,14.23
2023-01-25T01:43:03.070Z,11.77
2023-01-25T01:45:47.994Z,12.27
2023-01-25T01:48:21.528Z,12.88
2023-01-25T01:50:48.766Z,12.27
2023-01-25T01:53:15.171Z,14.35
2023-01-25T01:55:41.578Z,13.65
2023-01-25T01:58:08.009Z,14.70
2023-01-25T02:00:35.510Z,11.60
2023-01-25T02:03:01.952Z,14.23
2023-01-25T02:05:51.370Z,11.75
2023-01-25T02:08:17.777Z,9.68
2023-01-25T02:10:44.239Z,13.07
2023-01-25T02:13:10.646Z,13.95
2023-01-25T02:15:42.085Z,12.75
2023-01-25T02:18:11.753Z,12.38
2023-01-25T02:20:51.891Z,11.73
2023-01-25T02:23:49.196Z,13.45
2023-01-25T02:26:15.633Z,12.63
2023-01-25T02:28:55.455Z,13.90
2023-01-25T02:31:22.203Z,11.63
2023-01-25T02:33:48.652Z,12.77
2023-01-25T02:36:37.489Z,15.35
2023-01-25T02:39:14.603Z,13.73
2023-01-25T02:41:41.848Z,14.60
2023-01-25T02:44:20.194Z,14.88
2023-01-25T02:46:46.658Z,13.43
2023-01-25T02:49:13.162Z,15.52
2023-01-25T02:51:45.530Z,15.35
2023-01-25T02:54:12.281Z,15.30
2023-01-25T02:56:38.899Z,12.95
2023-01-25T02:59:05.411Z,13.45
2023-01-25T03:01:38.264Z,15.98
2023-01-25T03:04:05.392Z,13.85
2023-01-25T03:06:32.368Z,12.23
2023-01-25T03:08:58.952Z,15.23
2023-01-25T03:11:25.367Z,13.60
2023-01-25T03:13:51.772Z,14.52
2023-01-25T03:16:18.270Z,13.50
2023-01-25T03:18:44.766Z,14.25
2023-01-25T03:21:18.212Z,14.40
2023-01-25T03:23:45.081Z,18.42
2023-01-25T03:26:12.644Z,14.93
2023-01-25T03:28:39.710Z,14.35
2023-01-25T03:31:06.855Z,17.02
2023-01-25T03:33:33.319Z,15.55
2023-01-25T03:35:59.841Z,16.75
2023-01-25T03:38:26.266Z,18.63
2023-01-25T03:40:52.780Z,18.98
2023-01-25T03:43:19.217Z,17.73
2023-01-25T03:45:45.621Z,17.33
2023-01-25T03:48:12.365Z,18.33
2023-01-25T03:50:38.766Z,16.38
2023-01-25T03:53:05.152Z,18.02
2023-01-25T03:55:31.616Z,13.90
2023-01-25T03:57:58.015Z,17.23
2023-01-25T04:00:24.447Z,16.38
2023-01-25T04:02:50.853Z,19.67
2023-01-25T04:05:17.477Z,14.63
2023-01-25T04:07:43.871Z,13.55
2023-01-25T04:10:10.728Z,14.23
2023-01-25T04:12:37.137Z,14.10
2023-01-25T04:15:03.797Z,13.38
2023-01-25T04:17:30.202Z,13.57
2023-01-25T04:19:56.613Z,10.75
2023-01-25T04:22:23.004Z,12.25
2023-01-25T04:24:49.409Z,13.00
2023-01-25T04:27:15.838Z,10.85
2023-01-25T04:29:42.303Z,13.50
2023-01-25T04:32:08.986Z,10.98
2023-01-25T04:34:35.567Z,13.10
2023-01-25T04:37:02.031Z,11.60
2023-01-25T04:39:28.431Z,9.90
2023-01-25T04:41:54.854Z,11.32
2023-01-25T04:44:21.253Z,9.55
2023-01-25T04:46:47.668Z,13.25
2023-01-25T04:49:14.065Z,12.52
2023-01-25T04:51:40.502Z,13.18
2023-01-25T04:54:06.926Z,12.10
2023-01-25T04:56:33.352Z,13.00
2023-01-25T04:58:59.806Z,12.07
2023-01-25T05:01:26.322Z,11.05
2023-01-25T05:03:52.997Z,12.25
2023-01-25T05:06:19.400Z,14.55
2023-01-25T05:08:45.795Z,13.48
2023-01-25T05:11:12.188Z,11.40
2023-01-25T05:13:38.616Z,13.82
2023-01-25T05:16:05.368Z,13.43
2023-01-25T05:18:47.125Z,14.48
2023-01-25T05:21:14.664Z,14.27
2023-01-25T05:23:41.084Z,12.38
2023-01-25T05:26:07.891Z,14.60
2023-01-25T05:28:34.351Z,14.38
2023-01-25T05:31:04.066Z,13.63
2023-01-25T05:33:30.558Z,12.88
2023-01-25T05:35:56.957Z,14.77
2023-01-25T05:38:23.369Z,10.27
2023-01-25T05:40:49.768Z,13.68
2023-01-25T05:43:16.204Z,14.20
2023-01-25T05:45:42.745Z,13.18
2023-01-25T05:48:09.260Z,15.48
2023-01-25T05:50:35.716Z,14.52
2023-01-25T05:53:02.149Z,11.75
2023-01-25T05:55:28.569Z,10.95
2023-01-25T05:57:55.927Z,14.55
2023-01-25T06:00:22.769Z,11.02
2023-01-25T06:02:49.245Z,11.82
2023-01-25T06:05:15.766Z,13.20
2023-01-25T06:07:42.163Z,15.10
2023-01-25T06:10:09.291Z,14.63
2023-01-25T06:12:35.686Z,14.85
2023-01-25T06:15:02.165Z,13.20
2023-01-25T06:17:28.631Z,12.70
2023-01-25T06:19:55.048Z,12.18
2023-01-25T06:22:21.448Z,10.93
2023-01-25T06:24:47.877Z,11.43
2023-01-25T06:27:14.268Z,14.55
2023-01-25T06:29:40.695Z,13.82
2023-01-25T06:32:07.165Z,12.32
2023-01-25T06:34:33.591Z,11.77
2023-01-25T06:37:00.029Z,12.60
2023-01-25T06:39:26.444Z,14.65
2023-01-25T06:41:52.887Z,11.63
2023-01-25T06:44:19.296Z,12.40
2023-01-25T06:46:45.734Z,13.23
2023-01-25T06:49:12.195Z,12.88
2023-01-25T06:51:38.619Z,12.57
2023-01-25T06:54:05.047Z,15.43
2023-01-25T06:56:31.520Z,14.52
2023-01-25T06:58:57.929Z,12.20
2023-01-25T07:01:24.552Z,13.55
2023-01-25T07:03:52.251Z,13.18
2023-01-25T07:06:18.897Z,12.25
2023-01-25T07:08:45.310Z,13.70
2023-01-25T07:11:12.084Z,14.95
2023-01-25T07:13:38.910Z,13.77
2023-01-25T07:16:06.626Z,14.80
2023-01-25T07:18:33.210Z,15.48
2023-01-25T07:21:21.757Z,15.65
2023-01-25T07:23:52.050Z,13.32
2023-01-25T07:26:21.886Z,15.80
2023-01-25T07:28:48.357Z,16.23
2023-01-25T07:31:15.143Z,13.15
2023-01-25T07:33:41.616Z,17.13
2023-01-25T07:36:08.957Z,15.75
2023-01-25T07:38:35.890Z,13.77
2023-01-25T07:41:02.678Z,14.20
2023-01-25T07:43:29.237Z,14.57
2023-01-25T07:46:09.793Z,15.13
2023-01-25T07:48:36.223Z,15.70
2023-01-25T07:51:04.030Z,15.80
2023-01-25T07:53:30.458Z,14.32
2023-01-25T07:55:58.603Z,17.48
2023-01-25T07:58:25.140Z,16.20
2023-01-25T08:00:51.536Z,17.42
2023-01-25T08:03:17.952Z,15.65
2023-01-25T08:05:44.822Z,15.45
2023-01-25T08:08:11.228Z,14.73
2023-01-25T08:10:37.977Z,16.85
2023-01-25T08:13:04.402Z,15.65
2023-01-25T08:15:30.808Z,14.45
2023-01-25T08:17:59.832Z,15.13
2023-01-25T08:20:26.233Z,14.00
2023-01-25T08:22:52.656Z,14.55
2023-01-25T08:25:19.073Z,14.77
2023-01-25T08:27:45.467Z,16.35
2023-01-25T08:30:12.053Z,16.92
2023-01-25T08:32:38.792Z,18.85
2023-01-25T08:35:05.647Z,18.50
2023-01-25T08:37:32.065Z,16.38
2023-01-25T08:39:58.559Z,17.45
2023-01-25T08:42:25.032Z,16.58
2023-01-25T08:44:51.482Z,19.05
2023-01-25T08:47:18.002Z,16.27
2023-01-25T08:49:44.466Z,16.38
2023-01-25T08:52:10.877Z,19.33
2023-01-25T08:54:37.337Z,17.35
2023-01-25T08:57:03.742Z,19.52
2023-01-25T08:59:30.237Z,16.25
2023-01-25T09:01:56.648Z,17.13
2023-01-25T09:04:23.080Z,18.85
2023-01-25T09:06:49.492Z,18.90
2023-01-25T09:09:15.897Z,17.33
2023-01-25T09:11:42.336Z,19.92
2023-01-25T09:14:11.009Z,19.20
2023-01-25T09:16:37.459Z,17.15
2023-01-25T09:19:04.033Z,17.60
2023-01-25T09:21:30.533Z,17.25
2023-01-25T09:24:06.028Z,19.60
2023-01-25T09:26:34.429Z,16.92
2023-01-25T09:29:00.932Z,22.17
2023-01-25T09:31:28.978Z,26.00
2023-01-25T09:33:55.441Z,19.75
2023-01-25T09:36:22.004Z,25.25
2023-01-25T09:38:48.500Z,20.33
2023-01-25T09:41:30.084Z,22.55
2023-01-25T09:44:31.950Z,24.50
2023-01-25T09:46:59.806Z,24.20
2023-01-25T09:49:58.173Z,23.83
2023-01-25T09:52:49.175Z,22.35
2023-01-25T09:55:16.295Z,24.20
2023-01-25T09:57:43.018Z,22.70
2023-01-25T10:00:21.696Z,28.20
2023-01-25T10:02:49.774Z,22.50
2023-01-25T10:05:21.810Z,24.15
2023-01-25T10:07:58.118Z,28.00
2023-01-25T10:10:36.336Z,28.23
2023-01-25T10:13:02.775Z,30.15
2023-01-25T10:15:55.975Z,28.23
2023-01-25T10:18:27.141Z,33.28
2023-01-25T10:20:59.729Z,33.28
2023-01-25T10:23:44.964Z,31.10
2023-01-25T10:26:28.253Z,32.75
2023-01-25T10:29:02.987Z,30.13
2023-01-25T10:31:50.804Z,36.35
2023-01-25T10:34:22.343Z,34.95
2023-01-25T10:36:56.469Z,26.80
2023-01-25T10:39:22.985Z,28.65
2023-01-25T10:41:52.807Z,26.38
2023-01-25T10:44:19.211Z,30.40
2023-01-25T10:46:49.478Z,28.95
2023-01-25T10:49:27.325Z,30.40
2023-01-25T10:51:53.736Z,29.27
2023-01-25T10:54:20.148Z,22.67
2023-01-25T10:56:46.565Z,27.88
2023-01-25T10:59:25.371Z,33.08
2023-01-25T11:01:51.871Z,34.55
2023-01-25T11:04:44.668Z,29.60
2023-01-25T11:07:27.357Z,22.67
2023-01-25T11:09:53.923Z,27.50
2023-01-25T11:12:20.796Z,25.10
2023-01-25T11:14:48.115Z,28.08
2023-01-25T11:17:23.540Z,27.77
2023-01-25T11:19:49.957Z,24.08
2023-01-25T11:22:19.292Z,26.20
2023-01-25T11:24:45.744Z,27.23
2023-01-25T11:27:19.126Z,26.98
2023-01-25T11:29:46.297Z,23.92
2023-01-25T11:32:16.552Z,27.80
2023-01-25T11:34:42.945Z,32.10
2023-01-25T11:37:27.957Z,29.75
2023-01-25T11:40:01.191Z,26.65
2023-01-25T11:42:59.985Z,24.80
2023-01-25T11:45:41.518Z,27.10
2023-01-25T11:48:40.270Z,24.13
2023-01-25T11:51:08.608Z,25.90
2023-01-25T11:53:53.644Z,22.17
2023-01-25T11:56:58.985Z,24.67
2023-01-25T11:59:53.867Z,25.17
2023-01-25T12:02:29.340Z,25.60
2023-01-25T12:05:21.076Z,24.70
2023-01-25T12:08:12.578Z,27.05
2023-01-25T12:11:03.976Z,27.77
2023-01-25T12:13:36.105Z,20.40
2023-01-25T12:16:23.819Z,23.52
2023-01-25T12:19:07.246Z,20.75
2023-01-25T12:21:58.350Z,22.10
2023-01-25T12:24:44.868Z,22.27
2023-01-25T12:27:28.339Z,28.23
2023-01-25T12:30:12.281Z,23.75
2023-01-25T12:32:52.661Z,23.30
2023-01-25T12:35:22.244Z,22.83
2023-01-25T12:37:48.713Z,15.85
2023-01-25T12:40:28.185Z,22.35
2023-01-25T12:42:57.153Z,21.55
2023-01-25T12:45:29.019Z,21.83
2023-01-25T12:48:00.302Z,20.48
2023-01-25T12:50:56.623Z,20.92
2023-01-25T12:53:47.685Z,22.65
2023-01-25T12:56:46.776Z,18.20
2023-01-25T12:59:28.460Z,22.92
2023-01-25T13:02:22.195Z,24.73
2023-01-25T13:05:05.342Z,23.95
2023-01-25T13:07:39.810Z,21.88
2023-01-25T13:10:14.188Z,23.13
2023-01-25T13:13:02.456Z,21.40
2023-01-25T13:15:39.966Z,21.30
2023-01-25T13:18:24.678Z,22.27
2023-01-25T13:20:52.764Z,18.13
2023-01-25T13:23:33.002Z,21.38
2023-01-25T13:26:38.567Z,22.38
2023-01-25T13:29:28.217Z,19.92
2023-01-25T13:31:57.164Z,26.15
2023-01-25T13:34:36.814Z,21.35
2023-01-25T13:37:14.970Z,24.15
2023-01-25T13:39:42.740Z,23.88
2023-01-25T13:42:09.080Z,28.23
2023-01-25T13:44:37.027Z,25.40
2023-01-25T13:47:04.465Z,27.13
2023-01-25T13:49:36.952Z,24.38
2023-01-25T13:52:03.830Z,22.73
2023-01-25T13:54:30.268Z,28.50
2023-01-25T13:57:04.006Z,23.88
2023-01-25T13:59:30.439Z,26.02
2023-01-25T14:01:57.685Z,26.63
2023-01-25T14:04:24.201Z,24.67
2023-01-25T14:06:57.869Z,24.05
2023-01-25T14:09:24.341Z,24.90
2023-01-25T14:11:58.495Z,27.23
2023-01-25T14:14:26.667Z,25.52
2023-01-25T14:17:18.224Z,26.30
2023-01-25T14:19:46.886Z,28.05
2023-01-25T14:22:25.803Z,24.88
2023-01-25T14:25:11.337Z,27.38
2023-01-25T14:27:47.144Z,27.98
2023-01-25T14:30:20.462Z,28.10
2023-01-25T14:32:46.874Z,29.05
2023-01-25T14:35:49.425Z,30.25
2023-01-25T14:38:39.301Z,28.13
2023-01-25T14:41:27.032Z,26.60
2023-01-25T14:46:27.596Z,25.23
2023-01-25T14:49:12.287Z,25.85
2023-01-25T14:51:55.129Z,30.45
2023-01-25T14:54:23.430Z,29.92
2023-01-25T14:56:57.170Z,32.60
2023-01-25T14:59:27.400Z,32.50
2023-01-25T15:01:54.234Z,27.33
2023-01-25T15:04:20.826Z,26.52
2023-01-25T15:06:51.253Z,24.00
2023-01-25T15:09:31.894Z,25.48
2023-01-25T15:12:03.480Z,28.23
2023-01-25T15:14:29.922Z,31.63
2023-01-25T15:16:56.527Z,29.08
2023-01-25T15:19:29.728Z,26.90
2023-01-25T15:21:58.445Z,27.38
2023-01-25T15:24:25.023Z,29.65
2023-01-25T15:26:52.712Z,29.20
2023-01-25T15:29:25.492Z,32.75
2023-01-25T15:31:52.040Z,24.55
2023-01-25T15:34:23.232Z,27.02
2023-01-25T15:36:49.727Z,25.65
2023-01-25T15:39:17.987Z,27.50
2023-01-25T15:41:44.637Z,24.77
2023-01-25T15:44:11.330Z,27.15
2023-01-25T15:46:39.376Z,24.65
2023-01-25T15:49:06.409Z,25.65
2023-01-25T15:51:35.588Z,25.70
2023-01-25T15:54:02.235Z,27.85
2023-01-25T15:56:30.719Z,26.35
2023-01-25T15:58:58.632Z,29.33
2023-01-25T16:01:27.540Z,25.52
2023-01-25T16:03:57.920Z,26.58
2023-01-25T16:06:44.018Z,27.40
2023-01-25T16:09:21.930Z,23.35
2023-01-25T16:11:50.854Z,27.73
2023-01-25T16:14:17.359Z,27.67
2023-01-25T16:16:52.908Z,27.63
2023-01-25T16:19:23.359Z,27.35
2023-01-25T16:21:52.826Z,27.60
2023-01-25T16:24:21.685Z,23.95
2023-01-25T16:26:54.015Z,25.10
2023-01-25T16:29:20.503Z,24.35
2023-01-25T16:31:47.105Z,33.85
2023-01-25T16:34:13.852Z,27.13
2023-01-25T16:36:40.271Z,25.27
2023-01-25T16:39:15.708Z,30.65
2023-01-25T16:41:42.117Z,31.05
2023-01-25T16:44:08.723Z,27.00
2023-01-25T16:46:35.190Z,26.98
2023-01-25T16:49:01.650Z,24.02
2023-01-25T16:51:28.250Z,20.30
2023-01-25T16:53:56.084Z,20.73
2023-01-25T16:56:23.890Z,24.17
2023-01-25T16:58:50.808Z,29.13
2023-01-25T17:01:18.114Z,22.67
2023-01-25T17:03:44.780Z,26.00
2023-01-25T17:06:16.133Z,25.80
2023-01-25T17:08:42.711Z,24.02
2023-01-25T17:11:09.106Z,29.02
2023-01-25T17:13:35.568Z,32.88
2023-01-25T17:16:01.991Z,33.38
2023-01-25T17:18:28.532Z,30.98
2023-01-25T17:21:02.252Z,27.10
2023-01-25T17:23:28.687Z,34.28
2023-01-25T17:25:55.412Z,33.25
2023-01-25T17:28:22.265Z,27.95
2023-01-25T17:30:48.779Z,34.75
2023-01-25T17:33:15.271Z,35.17
2023-01-25T17:35:41.712Z,31.00
2023-01-25T17:38:08.104Z,34.90
2023-01-25T17:40:35.615Z,30.77
2023-01-25T17:43:02.495Z,35.90
2023-01-25T17:45:28.944Z,39.60
2023-01-25T17:47:55.347Z,39.95
2023-01-25T17:50:21.744Z,32.08
2023-01-25T17:52:48.237Z,35.88
2023-01-25T17:55:14.865Z,35.03
2023-01-25T17:57:41.340Z,36.00
2023-01-25T18:00:08.833Z,35.03
2023-01-25T18:02:35.613Z,33.80
2023-01-25T18:05:02.029Z,36.60
2023-01-25T18:07:28.714Z,41.03
2023-01-25T18:09:55.121Z,39.75
2023-01-25T18:12:21.558Z,38.22
2023-01-25T18:14:47.953Z,37.72
2023-01-25T18:17:14.381Z,49.65
2023-01-25T18:19:40.936Z,43.15
2023-01-25T18:22:07.505Z,47.60
2023-01-25T18:24:34.578Z,43.30
2023-01-25T18:27:15.868Z,43.67
2023-01-25T18:29:54.378Z,49.55
2023-01-25T18:32:20.837Z,42.17
2023-01-25T18:34:47.258Z,46.47
2023-01-25T18:37:14.466Z,33.47
2023-01-25T18:39:40.880Z,47.92
2023-01-25T18:42:07.296Z,40.50
2023-01-25T18:44:33.845Z,38.03
2023-01-25T18:47:00.349Z,45.05
2023-01-25T18:49:26.823Z,40.28
2023-01-25T18:52:08.782Z,35.38
2023-01-25T18:54:37.955Z,34.58
2023-01-25T18:57:04.374Z,37.95
2023-01-25T18:59:30.844Z,36.42
2023-01-25T19:01:57.270Z,36.17
2023-01-25T19:04:23.822Z,36.78
2023-01-25T19:06:50.328Z,31.95
2023-01-25T19:09:16.748Z,32.33
2023-01-25T19:11:43.133Z,36.10
2023-01-25T19:14:09.592Z,30.42
2023-01-25T19:16:36.019Z,35.92
2023-01-25T19:19:02.555Z,36.20
2023-01-25T19:21:28.947Z,38.30
2023-01-25T19:23:55.551Z,38.17
2023-01-25T19:26:23.281Z,42.03
2023-01-25T19:28:49.763Z,34.13
2023-01-25T19:31:18.332Z,40.97
2023-01-25T19:33:44.932Z,37.47
2023-01-25T19:36:13.230Z,36.75
2023-01-25T19:38:39.713Z,36.58
2023-01-25T19:41:10.078Z,36.78
2023-01-25T19:43:36.503Z,34.00
2023-01-25T19:46:25.120Z,34.70
2023-01-25T19:48:51.825Z,44.25
2023-01-25T19:51:28.981Z,36.50
2023-01-25T19:54:16.830Z,43.25
2023-01-25T19:56:44.732Z,41.55
2023-01-25T19:59:16.052Z,37.85
2023-01-25T20:01:42.876Z,39.20
2023-01-25T20:04:09.952Z,40.45
2023-01-25T20:06:36.382Z,45.75
2023-01-25T20:09:02.857Z,41.97
2023-01-25T20:11:30.380Z,37.45
2023-01-25T20:13:58.577Z,37.40
2023-01-25T20:16:25.223Z,33.83
2023-01-25T20:18:51.688Z,39.47
2023-01-25T20:21:21.842Z,36.78
2023-01-25T20:23:50.997Z,42.35
2023-01-25T20:26:21.738Z,40.83
2023-01-25T20:28:50.094Z,38.63
2023-01-25T20:31:24.399Z,39.33
2023-01-25T20:33:51.779Z,37.85
2023-01-25T20:36:18.315Z,42.47
2023-01-25T20:38:44.882Z,35.60
2023-01-25T20:41:12.788Z,34.90
2023-01-25T20:43:39.318Z,40.45
2023-01-25T20:46:05.758Z,40.35
2023-01-25T20:48:32.168Z,36.55
2023-01-25T20:51:05.483Z,46.13
2023-01-25T20:53:33.201Z,37.97
2023-01-25T20:55:59.722Z,46.53
2023-01-25T20:58:26.653Z,40.47
2023-01-25T21:00:53.415Z,42.10
2023-01-25T21:03:20.091Z,39.55
2023-01-25T21:05:56.360Z,35.88
2023-01-25T21:08:23.125Z,38.65
2023-01-25T21:10:57.431Z,41.90
2023-01-25T21:13:24.147Z,43.10
2023-01-25T21:16:13.144Z,41.40
2023-01-25T21:18:40.954Z,40.88
2023-01-25T21:21:11.609Z,50.88
2023-01-25T21:23:39.673Z,45.30
2023-01-25T21:26:06.461Z,47.25
2023-01-25T21:28:33.419Z,41.53
2023-01-25T21:31:07.565Z,46.65
2023-01-25T21:33:34.026Z,45.78
2023-01-25T21:36:01.193Z,51.83
2023-01-25T21:38:27.694Z,50.75
2023-01-25T21:41:00.106Z,49.70
2023-01-25T21:43:26.540Z,46.55
2023-01-25T21:45:52.986Z,45.60
2023-01-25T21:48:19.399Z,55.80
2023-01-25T21:50:45.875Z,47.38
2023-01-25T21:53:12.296Z,48.88
2023-01-25T21:55:38.689Z,42.40
2023-01-25T21:58:05.149Z,52.30
2023-01-25T22:00:31.574Z,47.38
2023-01-25T22:02:58.055Z,47.67
2023-01-25T22:05:24.517Z,45.42
2023-01-25T22:07:51.023Z,47.42
2023-01-25T22:10:17.450Z,45.72
2023-01-25T22:12:43.831Z,49.60
2023-01-25T22:15:10.653Z,51.42
2023-01-25T22:17:40.015Z,48.95
2023-01-25T22:20:06.854Z,45.97
2023-01-25T22:22:33.263Z,47.83
2023-01-25T22:24:59.684Z,43.70
2023-01-25T22:27:47.756Z,41.55
2023-01-25T22:30:14.251Z,45.78
2023-01-25T22:32:40.647Z,46.75
2023-01-25T22:35:07.760Z,39.97
2023-01-25T22:37:35.231Z,44.15
2023-01-25T22:40:01.672Z,48.38
2023-01-25T22:42:28.130Z,46.38
2023-01-25T22:44:58.914Z,46.28
2023-01-25T22:47:25.411Z,52.63
2023-01-25T22:49:51.828Z,45.00
2023-01-25T22:52:18.257Z,43.42
2023-01-25T22:54:44.931Z,48.20
2023-01-25T22:57:11.354Z,39.75
2023-01-25T22:59:37.830Z,48.85
2023-01-25T23:02:06.755Z,45.75
2023-01-25T23:04:33.564Z,35.70
2023-01-25T23:06:59.995Z,46.10
2023-01-25T23:09:26.469Z,43.95
2023-01-25T23:11:52.864Z,47.95
2023-01-25T23:14:19.262Z,48.80
2023-01-25T23:16:45.767Z,40.88
2023-01-25T23:19:12.216Z,46.65
2023-01-25T23:21:38.653Z,41.40
2023-01-25T23:24:05.373Z,39.53
2023-01-25T23:26:32.826Z,42.80
2023-01-25T23:28:59.217Z,49.40
2023-01-25T23:31:26.836Z,42.38
2023-01-25T23:33:55.004Z,38.85
2023-01-25T23:36:25.881Z,45.80
2023-01-25T23:38:52.459Z,43.08
2023-01-25T23:41:19.749Z,37.25
2023-01-25T23:43:46.260Z,36.45
2023-01-25T23:46:12.839Z,34.40
2023-01-25T23:48:39.283Z,38.65
2023-01-25T23:51:05.724Z,40.50
2023-01-25T23:53:32.261Z,40.33
2023-01-25T23:56:02.984Z,29.80
2023-01-25T23:58:29.490Z,40.83
